0CO7 weather

Century Helicopters Heliport
Fort Collins, Colorado, United States

Public forecast

Using degrees Fahrenheit for public forecast. Weather courtesy of forecast.io.

METAR (pilot weather report)

Closest report is Northern Colorado Regional Airport, 8.1 nm (15.1 km) S. Retrieved 2019/08/20 22:56 UTC (34 minutes ago):

KFNL 202256Z AUTO 08027G37KT 9SM CLR 27/11 A3009 RMK AO2 PK WND 09037/2254 LTG DSNT NE AND E TSB16E31 SLP127 T02670111

TAF (pilot weather forecast)

Closest forecast is Cheyenne Regional Jerry Olson Field, 35.8 nm (66.2 km) NNE. Retrieved 2019/08/20 18:39 UTC (5 hours ago):

TAF KCYS 201736Z 2018/2118 35007KT P6SM SCT250 FM202000 09012G20KT P6SM SCT070 BKN200 FM202300 13015G22KT P6SM VCTS BKN060CB OVC150 FM210500 33006KT P6SM BKN060 OVC250 FM211200 15006KT P6SM BKN030